KWWD/WWD METAR and TAF weather

Enter ICAO airport designator
Station Type Date Time Source
KWWD METAR 2019/10/23 01:56 UTC NOAA

KWWD 230156Z AUTO 24010KT 10SM -RA BKN005 OVC023 18/18 A2983 RMK AO2 RAB11 CIG 004V007 SLP104 P0000 T01830178


Station Type Date Time Source
KWWD Decoded METAR 2019/10/23 01:56 UTC NOAA

Wildwood, Cape May County Airport, NJ, United States (KWWD) 39-01N 074-55W
Oct 22, 2019 - 09:56 PM EDT / 2019.10.23 0156 UTC
Wind: from the WSW (240 degrees) at 12 MPH (10 KT):0
Visibility: 10 mile(s):0
Sky conditions: overcast
Weather: light rain
Precipitation last hour: A trace
Temperature: 64.9 F (18.3 C)
Dew Point: 64.0 F (17.8 C)
Relative Humidity: 96%
Pressure (altimeter): 29.83 in. Hg (1010 hPa)
ob: KWWD 230156Z AUTO 24010KT 10SM -RA BKN005 OVC023 18/18 A2983 RMK AO2 RAB11 CIG 004V007 SLP104 P0000 T01830178
cycle: 2

Station Type Date Time Source
KWWD TAF UTC NOAA

Error!

Example: see airport list